Bookmark and Share
Track history (hours):
 

Coastal 303

More information available from US FCC via Universal Licensing System and Coast Guard Vessel Documentation Center.

Last reported at 2014-Apr-17 19:33 UTC. Time now 2014-Apr-19 22:22 UTC.
Position N 27°40' W 082°36'.

Length 180 m; draft 9 m.

Type: Towing. MMSI: 366751340.

NotesDate/timePositionNaut miles runAvg speedWind from/ knotsBaromVisibWave heightAir tempDewpointWater temp
2014-Apr-17 19:33N 27°40' W 082°36'8 8.4
2014-Apr-17 18:34N 27°47' W 082°31'8 7.8
2014-Apr-17 17:33N 27°53' W 082°26'2 2.3
2014-Apr-17 16:34N 27°56' W 082°26'0 0.0
2014-Apr-17 15:31N 27°56' W 082°26'0 0.0
2014-Apr-17 14:31N 27°56' W 082°26'0 0.0
2014-Apr-17 13:32N 27°56' W 082°26'0 0.0
2014-Apr-17 12:32N 27°56' W 082°26'0 0.0
2014-Apr-17 11:32N 27°56' W 082°26'0 0.0
2014-Apr-17 10:32N 27°56' W 082°26'0 0.0
2014-Apr-17 09:32N 27°56' W 082°26'0 0.0
2014-Apr-17 08:32N 27°56' W 082°26'0 0.0
2014-Apr-17 07:32N 27°56' W 082°26'0 0.0
2014-Apr-17 06:32N 27°56' W 082°26'0 0.0
2014-Apr-17 05:32N 27°56' W 082°26'0 0.0
2014-Apr-17 04:29N 27°56' W 082°26'0 0.0
2014-Apr-17 03:33N 27°56' W 082°26'0 0.0
2014-Apr-17 02:33N 27°56' W 082°26'0 0.0
2014-Apr-17 01:33N 27°56' W 082°26'0 0.0
2014-Apr-17 00:33N 27°56' W 082°26'2 1.6
2014-Apr-16 23:33N 27°57' W 082°27'0 0.0
2014-Apr-16 22:33N 27°57' W 082°27'0 0.0
2014-Apr-16 21:33N 27°57' W 082°27'0 0.0
2014-Apr-16 20:33N 27°57' W 082°27'0 0.0
2014-Apr-16 19:33N 27°57' W 082°27'0 0.0
2014-Apr-16 18:33N 27°57' W 082°27'2 1.7
2014-Apr-16 17:33N 27°56' W 082°26'0 0.0
2014-Apr-16 16:33N 27°56' W 082°26'2 1.8
2014-Apr-16 15:33N 27°54' W 082°26'6 5.7
2014-Apr-16 14:33N 27°48' W 082°25'1 0.5
2014-Apr-16 13:31N 27°48' W 082°25'0 0.1
2014-Apr-16 12:31N 27°48' W 082°25'0 0.0
2014-Apr-16 11:28N 27°48' W 082°25'0 0.0
2014-Apr-16 10:31N 27°48' W 082°25'0 0.0
2014-Apr-16 09:31N 27°48' W 082°25'0 0.0
2014-Apr-16 08:31N 27°48' W 082°25'0 0.0
2014-Apr-16 07:31N 27°48' W 082°25'0 0.0
2014-Apr-16 06:31N 27°48' W 082°25'0 0.0
2014-Apr-16 05:31N 27°48' W 082°25'0 0.0
2014-Apr-16 04:31N 27°48' W 082°25'0 0.0
2014-Apr-16 03:31N 27°48' W 082°25'0 0.0
2014-Apr-16 02:31N 27°48' W 082°25'0 0.0
2014-Apr-16 01:25N 27°48' W 082°25'0 0.0
2014-Apr-16 00:31N 27°48' W 082°25'0 0.0
2014-Apr-15 23:31N 27°48' W 082°25'0 0.0
2014-Apr-15 22:31N 27°48' W 082°25'0 0.0
2014-Apr-15 21:28N 27°48' W 082°25'0 0.0
2014-Apr-15 20:31N 27°48' W 082°25'0 0.0
2014-Apr-15 19:31N 27°48' W 082°25'0 0.0
2014-Apr-15 18:31N 27°48' W 082°25'0 0.0
2014-Apr-15 17:31N 27°48' W 082°25'0 0.0
2014-Apr-15 16:31N 27°48' W 082°25'0 0.0
2014-Apr-15 15:31N 27°48' W 082°25'0 0.0
2014-Apr-15 14:31N 27°48' W 082°25'0 0.0
2014-Apr-15 12:32N 27°48' W 082°25'0 0.0
2014-Apr-15 11:32N 27°48' W 082°25'0 0.0
2014-Apr-15 08:32N 27°48' W 082°25'0 0.0
2014-Apr-15 07:34N 27°48' W 082°25'0 0.0
2014-Apr-15 06:31N 27°48' W 082°25'0 0.0
2014-Apr-15 05:31N 27°48' W 082°25'0 0.0
2014-Apr-15 03:33N 27°48' W 082°25'0 0.0
2014-Apr-15 02:33N 27°48' W 082°25'0 0.0
2014-Apr-15 01:33N 27°48' W 082°25'0 0.0
2014-Apr-15 00:33N 27°48' W 082°25'0 0.0
2014-Apr-14 23:33N 27°48' W 082°25'0 0.0
2014-Apr-14 22:33N 27°48' W 082°25'0 0.0
2014-Apr-14 21:33N 27°48' W 082°25'0 0.0
2014-Apr-14 20:33N 27°48' W 082°25'0 0.0
2014-Apr-14 19:33N 27°48' W 082°25'0 0.0
2014-Apr-14 18:33N 27°48' W 082°25'0 0.0
2014-Apr-14 17:33N 27°48' W 082°25'0 0.0
2014-Apr-14 16:33N 27°48' W 082°25'0 0.3
2014-Apr-14 15:33N 27°48' W 082°25'5 4.7
2014-Apr-14 14:34N 27°48' W 082°30'  
2014-Apr-10 17:06N 29°60' W 090°28'4 4.1
2014-Apr-10 16:13N 30°03' W 090°30'0 0.0
2014-Apr-10 15:13N 30°03' W 090°30'0 0.0
2014-Apr-10 12:31N 30°03' W 090°30'0 0.0
2014-Apr-10 11:32N 30°03' W 090°30'0 0.0
2014-Apr-10 10:32N 30°03' W 090°30'0 0.0
2014-Apr-10 09:32N 30°03' W 090°30'0 0.0
2014-Apr-10 08:32N 30°03' W 090°30'0 0.0
2014-Apr-10 07:26N 30°03' W 090°30'0 0.0
2014-Apr-10 06:32N 30°03' W 090°30'0 0.0
2014-Apr-10 05:28N 30°03' W 090°30'0 0.0
2014-Apr-10 04:28N 30°03' W 090°30'0 0.0
2014-Apr-10 03:31N 30°03' W 090°30'0 0.0
2014-Apr-10 02:31N 30°03' W 090°30'0 0.0
2014-Apr-10 01:31N 30°03' W 090°30'0 0.0
2014-Apr-10 00:31N 30°03' W 090°30'0 0.0
2014-Apr-09 23:31N 30°03' W 090°30'0 0.0
2014-Apr-09 22:32N 30°03' W 090°30'0 0.0
2014-Apr-09 18:13N 30°03' W 090°30'0 0.0
2014-Apr-09 17:22N 30°03' W 090°30'0 0.0
2014-Apr-09 12:32N 30°03' W 090°30'0 0.0
2014-Apr-09 11:32N 30°03' W 090°30'0 0.0
2014-Apr-09 10:32N 30°03' W 090°30'0 0.0
2014-Apr-09 09:32N 30°03' W 090°30'0 0.0
2014-Apr-09 08:32N 30°03' W 090°30'0 0.0
2014-Apr-09 07:20N 30°03' W 090°30'0 0.0
2014-Apr-09 06:29N 30°03' W 090°30'0 0.0
2014-Apr-09 05:32N 30°03' W 090°30'0 0.0
2014-Apr-09 04:28N 30°03' W 090°30'0 0.0
2014-Apr-09 03:31N 30°03' W 090°30'0 0.0
2014-Apr-09 02:31N 30°03' W 090°30'0 0.0
2014-Apr-09 01:33N 30°03' W 090°30'0 0.0
2014-Apr-09 00:33N 30°03' W 090°30'0 0.0
2014-Apr-08 23:33N 30°03' W 090°30'0 0.0
2014-Apr-08 22:33N 30°03' W 090°30'0 0.0
2014-Apr-08 14:34N 30°03' W 090°30'0 0.0
2014-Apr-08 13:31N 30°03' W 090°30'0 0.0
2014-Apr-08 12:31N 30°03' W 090°30'0 0.0
2014-Apr-08 11:33N 30°03' W 090°30'4 4.4
2014-Apr-08 10:33N 29°60' W 090°27'6 5.9
2014-Apr-08 09:34N 29°56' W 090°21'  

Dump ship's entire track history

sailing weather and tide predictions

Coastal 303 — WDE2540 — position and weather